Time;durP1;ratioP1;P1;durP2;ratioP2;P2;SDS_P1;SDS_P2;PMS_P1;PMS_P2;Temp;Humidity;BMP_temperature;BMP_pressure;BME280_temperature;BME280_humidity;BME280_pressure;Samples;Min_cycle;Max_cycle;Signal;HPM_P1;HPM_P2
2021/01/05 00:03:37;;;;;;;;;;;4.30;99.90;;;;;;10407855;28;19925;-65
2021/01/05 00:08:39;;;;;;;;;;;4.30;99.90;;;;;;10407979;28;20020;-65
2021/01/05 00:13:40;;;;;;;;;;;4.20;99.90;;;;;;10405909;28;20027;-65
2021/01/05 00:18:41;;;;;;;;;;;4.20;99.90;;;;;;10407326;28;19968;-65
2021/01/05 00:23:43;;;;;;;;;;;4.30;99.90;;;;;;10408335;28;20023;-65
2021/01/05 00:28:44;;;;;;;;;;;4.40;99.90;;;;;;10407139;28;19968;-65
2021/01/05 00:33:45;;;;;;;;;;;4.50;99.90;;;;;;10406902;28;20011;-65
2021/01/05 00:38:47;;;;;;;;;;;4.50;99.90;;;;;;10407473;28;19925;-65
2021/01/05 00:43:48;;;;;;;;;;;4.40;99.90;;;;;;10407413;28;20017;-65
2021/01/05 00:48:50;;;;;;;;;;;4.50;99.90;;;;;;10407458;28;20453;-65
2021/01/05 00:53:51;;;;;;;;;;;4.50;99.90;;;;;;10403146;28;20960;-65
2021/01/05 00:58:52;;;;;;;;;;;4.40;99.90;;;;;;10405976;28;19925;-65
2021/01/05 01:03:54;;;;;;;;;;;4.40;99.90;;;;;;10404662;28;19979;-65
2021/01/05 01:08:55;;;;;;;;;;;4.50;99.90;;;;;;10402153;28;20330;-65
2021/01/05 01:13:57;;;;;;;;;;;4.50;99.90;;;;;;10418431;28;19931;-65
2021/01/05 01:18:58;;;;;;;;;;;4.50;99.90;;;;;;10404601;28;19995;-65
2021/01/05 01:24:00;;;;;;;;;;;4.50;99.90;;;;;;10403949;28;20031;-65
2021/01/05 01:29:01;;;;;;;;;;;4.20;99.90;;;;;;10403711;28;19967;-65
2021/01/05 01:34:02;;;;;;;;;;;4.30;99.90;;;;;;10403525;28;20055;-65
2021/01/05 01:39:04;;;;;;;;;;;4.30;99.90;;;;;;10403648;28;19973;-65
2021/01/05 01:44:06;;;;;;;;;;;4.40;99.90;;;;;;10402690;28;19957;-65
2021/01/05 01:49:07;;;;;;;;;;;4.30;99.90;;;;;;10403229;28;20012;-65
2021/01/05 01:54:08;;;;;;;;;;;4.20;99.90;;;;;;10402798;28;19980;-65
2021/01/05 01:59:13;;;;;;;;;;;4.20;99.90;;;;;;10403753;28;19971;-65
2021/01/05 02:04:32;;;;;;;;;;;4.30;99.90;;;;;;10402051;28;19925;-65
2021/01/05 02:09:52;;;;;;;;;;;4.40;99.90;;;;;;10402298;28;19964;-65
2021/01/05 02:15:14;;;;;;;;;;;4.30;99.90;;;;;;10401917;28;20504;-65
2021/01/05 02:20:41;;;;;;;;;;;4.20;99.90;;;;;;10403930;28;19968;-66
2021/01/05 02:25:49;;;;;;;;;;;4.30;99.90;;;;;;10371582;28;19965;-66
2021/01/05 02:30:54;;;;;;;;;;;4.20;99.90;;;;;;10403527;28;19984;-65
2021/01/05 02:36:09;;;;;;;;;;;4.30;99.90;;;;;;10403998;28;19976;-67
2021/01/05 02:41:37;;;;;;;;;;;4.30;99.90;;;;;;10403166;28;19968;-65
2021/01/05 02:46:50;;;;;;;;;;;4.40;99.90;;;;;;10380050;28;20128;-65
2021/01/05 02:51:58;;;;;;;;;;;4.30;99.90;;;;;;10402910;28;20020;-65
2021/01/05 02:57:23;;;;;;;;;;;4.30;99.90;;;;;;10408307;28;19994;-65
2021/01/05 03:02:36;;;;;;;;;;;4.30;99.90;;;;;;10405007;28;19925;-65
2021/01/05 03:07:37;;;;;;;;;;;4.40;99.90;;;;;;10418543;28;19965;-65
2021/01/05 03:12:46;;;;;;;;;;;4.40;99.90;;;;;;10418583;28;19929;-65
2021/01/05 03:17:50;;;;;;;;;;;4.50;99.90;;;;;;10418476;28;19979;-65
2021/01/05 03:22:54;;;;;;;;;;;4.30;99.90;;;;;;10418513;28;19971;-65
2021/01/05 03:27:56;;;;;;;;;;;4.30;99.90;;;;;;10417927;28;19952;-65
2021/01/05 03:32:58;;;;;;;;;;;4.30;99.90;;;;;;10417953;28;19969;-65
2021/01/05 03:37:59;;;;;;;;;;;4.40;99.90;;;;;;10417869;28;19929;-65
2021/01/05 03:43:00;;;;;;;;;;;4.40;99.90;;;;;;10417625;28;19969;-65
2021/01/05 03:48:03;;;;;;;;;;;4.30;99.90;;;;;;10417124;28;19925;-65
2021/01/05 03:53:04;;;;;;;;;;;4.20;99.90;;;;;;10417287;28;19976;-65
2021/01/05 03:58:05;;;;;;;;;;;4.20;99.90;;;;;;10415406;28;19925;-65
2021/01/05 04:03:07;;;;;;;;;;;4.30;99.90;;;;;;10414343;28;20023;-65
2021/01/05 04:08:08;;;;;;;;;;;4.40;99.90;;;;;;10410514;28;20365;-65
2021/01/05 04:13:10;;;;;;;;;;;4.40;99.90;;;;;;10409259;28;20092;-65
2021/01/05 04:18:11;;;;;;;;;;;4.50;99.90;;;;;;10409363;28;20011;-65
2021/01/05 04:23:12;;;;;;;;;;;4.50;99.90;;;;;;10408944;28;20462;-65
2021/01/05 04:28:14;;;;;;;;;;;4.40;99.90;;;;;;10408674;28;19979;-65
2021/01/05 04:33:15;;;;;;;;;;;4.50;99.90;;;;;;10408251;28;19982;-65
2021/01/05 04:38:16;;;;;;;;;;;4.50;99.90;;;;;;10408139;28;20401;-65
2021/01/05 04:43:22;;;;;;;;;;;4.50;99.90;;;;;;10408341;28;20459;-65
2021/01/05 04:48:38;;;;;;;;;;;4.50;99.90;;;;;;10408084;28;20086;-65
2021/01/05 04:53:43;;;;;;;;;;;4.40;99.90;;;;;;10407688;28;19984;-65
2021/01/05 04:58:44;;;;;;;;;;;4.50;99.90;;;;;;10407866;28;19964;-65
2021/01/05 05:04:05;;;;;;;;;;;4.40;99.90;;;;;;10429567;28;19931;-65
2021/01/05 05:09:15;;;;;;;;;;;4.30;99.90;;;;;;10407041;28;20428;-65
2021/01/05 05:14:19;;;;;;;;;;;4.20;99.90;;;;;;10406491;28;20019;-65
2021/01/05 05:19:39;;;;;;;;;;;4.20;99.90;;;;;;10406615;28;20008;-65
2021/01/05 05:24:43;;;;;;;;;;;4.20;99.90;;;;;;10407184;28;19983;-65
2021/01/05 05:29:44;;;;;;;;;;;4.20;99.90;;;;;;10406311;28;19960;-65
2021/01/05 05:34:58;;;;;;;;;;;4.20;99.90;;;;;;10405892;28;19965;-65
2021/01/05 05:40:02;;;;;;;;;;;4.40;99.90;;;;;;10405724;28;19976;-65
2021/01/05 05:45:07;;;;;;;;;;;4.30;99.90;;;;;;10405570;28;19975;-65
2021/01/05 05:50:13;;;;;;;;;;;4.10;99.90;;;;;;10405196;28;20007;-65
2021/01/05 05:55:25;;;;;;;;;;;4.20;99.90;;;;;;10405212;28;20421;-66
2021/01/05 06:00:29;;;;;;;;;;;4.30;99.90;;;;;;10366726;28;20008;-65
2021/01/05 06:05:32;;;;;;;;;;;4.30;99.90;;;;;;10404733;28;20031;-65
2021/01/05 06:10:34;;;;;;;;;;;4.30;99.90;;;;;;10404731;28;20031;-65
2021/01/05 06:15:35;;;;;;;;;;;4.30;99.90;;;;;;10404481;28;19972;-65
2021/01/05 06:20:37;;;;;;;;;;;4.40;99.90;;;;;;10405291;28;20384;-65
2021/01/05 06:25:38;;;;;;;;;;;4.20;99.90;;;;;;10404447;28;19968;-65
2021/01/05 06:30:39;;;;;;;;;;;4.30;99.90;;;;;;10406671;28;19983;-65
2021/01/05 06:35:41;;;;;;;;;;;4.30;99.90;;;;;;10412934;28;19965;-65
2021/01/05 06:40:42;;;;;;;;;;;4.40;99.90;;;;;;10412841;28;19932;-65
2021/01/05 06:45:44;;;;;;;;;;;4.40;99.90;;;;;;10413096;28;20003;-65
2021/01/05 06:50:45;;;;;;;;;;;4.30;99.90;;;;;;10412009;28;19925;-66
2021/01/05 06:55:46;;;;;;;;;;;4.30;99.90;;;;;;10443061;28;19979;-65
2021/01/05 07:00:48;;;;;;;;;;;4.40;99.90;;;;;;10412007;28;19925;-65
2021/01/05 07:05:49;;;;;;;;;;;4.50;99.90;;;;;;10411551;28;20011;-65
2021/01/05 07:10:50;;;;;;;;;;;4.30;99.90;;;;;;10411596;28;20025;-65
2021/01/05 07:15:53;;;;;;;;;;;4.30;99.90;;;;;;10411555;28;19929;-65
2021/01/05 07:20:55;;;;;;;;;;;4.20;99.90;;;;;;10411475;28;19929;-65
2021/01/05 07:25:56;;;;;;;;;;;4.30;99.90;;;;;;10411180;28;20013;-66
2021/01/05 07:30:57;;;;;;;;;;;4.40;99.90;;;;;;10410656;28;19976;-65
2021/01/05 07:36:01;;;;;;;;;;;4.40;99.90;;;;;;10410795;28;19971;-65
2021/01/05 07:41:02;;;;;;;;;;;4.40;99.90;;;;;;10410501;28;20824;-66
2021/01/05 07:46:03;;;;;;;;;;;4.40;99.90;;;;;;10410469;28;20003;-65
2021/01/05 07:51:08;;;;;;;;;;;4.30;99.90;;;;;;10410161;28;20000;-65
2021/01/05 07:56:10;;;;;;;;;;;4.30;99.90;;;;;;10370519;28;20024;-65
2021/01/05 08:01:11;;;;;;;;;;;4.30;99.90;;;;;;10424736;28;19979;-65
2021/01/05 08:06:12;;;;;;;;;;;4.30;99.90;;;;;;10410002;28;20258;-65
2021/01/05 08:11:14;;;;;;;;;;;4.40;99.90;;;;;;10409207;28;19925;-65
2021/01/05 08:16:15;;;;;;;;;;;4.30;99.90;;;;;;10409605;28;19925;-65
2021/01/05 08:21:21;;;;;;;;;;;4.30;99.90;;;;;;10409070;28;19987;-65
2021/01/05 08:26:24;;;;;;;;;;;4.40;99.90;;;;;;10408941;28;20044;-65
2021/01/05 08:31:36;;;;;;;;;;;4.40;99.90;;;;;;10408689;28;20375;-65
2021/01/05 08:36:38;;;;;;;;;;;4.30;99.90;;;;;;10408079;28;19968;-65
2021/01/05 08:41:43;;;;;;;;;;;4.20;99.90;;;;;;10408283;28;20411;-65
2021/01/05 08:46:44;;;;;;;;;;;4.20;99.90;;;;;;10407997;28;20007;-65
2021/01/05 08:51:45;;;;;;;;;;;4.20;99.90;;;;;;10407743;28;19929;-65
2021/01/05 08:56:51;;;;;;;;;;;4.40;99.90;;;;;;10407590;28;20509;-65
2021/01/05 09:01:52;;;;;;;;;;;4.40;99.90;;;;;;10407621;28;20361;-65
2021/01/05 09:06:57;;;;;;;;;;;4.40;99.90;;;;;;10422417;28;19971;-65
2021/01/05 09:11:58;;;;;;;;;;;4.50;99.90;;;;;;10406981;28;19971;-65
2021/01/05 09:17:00;;;;;;;;;;;4.30;99.90;;;;;;10418891;28;19995;-65
2021/01/05 09:22:02;;;;;;;;;;;4.20;99.90;;;;;;10403413;28;19925;-66
2021/01/05 09:27:03;;;;;;;;;;;4.20;99.90;;;;;;10404181;28;20436;-65
2021/01/05 09:32:04;;;;;;;;;;;4.20;99.90;;;;;;10404565;28;20289;-65
2021/01/05 09:37:06;;;;;;;;;;;4.30;99.90;;;;;;10401157;28;20116;-65
2021/01/05 09:42:07;;;;;;;;;;;4.20;99.90;;;;;;10403915;28;19979;-66
2021/01/05 09:47:08;;;;;;;;;;;4.30;99.90;;;;;;10404608;28;20369;-68
2021/01/05 09:52:10;;;;;;;;;;;4.40;99.90;;;;;;10405146;28;19925;-68
2021/01/05 09:57:11;;;;;;;;;;;4.40;99.90;;;;;;10404253;28;20016;-68
2021/01/05 10:02:13;;;;;;;;;;;4.30;99.90;;;;;;10437022;28;20399;-68
2021/01/05 10:07:15;;;;;;;;;;;4.40;99.90;;;;;;10414698;28;19964;-69
2021/01/05 10:12:16;;;;;;;;;;;4.40;99.90;;;;;;10403122;28;20006;-68
2021/01/05 10:17:17;;;;;;;;;;;4.40;99.90;;;;;;10400676;28;20059;-68
2021/01/05 10:22:19;;;;;;;;;;;4.50;99.90;;;;;;10402102;28;20404;-69
2021/01/05 10:27:20;;;;;;;;;;;4.50;99.90;;;;;;10401896;28;20378;-69
2021/01/05 10:32:22;;;;;;;;;;;4.60;99.90;;;;;;10402796;28;19925;-68
2021/01/05 10:37:23;;;;;;;;;;;4.60;99.90;;;;;;10402391;28;20488;-68
2021/01/05 10:42:41;;;;;;;;;;;4.60;99.90;;;;;;10415562;28;19932;-69
2021/01/05 10:47:43;;;;;;;;;;;4.60;99.90;;;;;;10402538;28;20020;-69
2021/01/05 10:52:45;;;;;;;;;;;4.70;99.90;;;;;;10403258;28;20012;-68
2021/01/05 10:57:47;;;;;;;;;;;4.70;99.90;;;;;;10403680;28;19957;-68
2021/01/05 11:02:48;;;;;;;;;;;4.80;99.90;;;;;;10403179;28;19960;-68
2021/01/05 11:07:51;;;;;;;;;;;4.90;99.90;;;;;;10403182;28;19964;-68
2021/01/05 11:12:55;;;;;;;;;;;4.80;99.90;;;;;;10402026;28;19925;-69
2021/01/05 11:17:56;;;;;;;;;;;4.80;99.90;;;;;;10406425;28;19925;-70
2021/01/05 11:22:58;;;;;;;;;;;4.80;99.90;;;;;;10412325;28;19965;-70
2021/01/05 11:27:59;;;;;;;;;;;4.80;99.90;;;;;;10411573;28;20016;-70
2021/01/05 11:33:00;;;;;;;;;;;4.80;99.90;;;;;;10426349;28;19961;-69
2021/01/05 11:38:02;;;;;;;;;;;5.00;99.90;;;;;;10411433;28;20012;-71
2021/01/05 11:43:03;;;;;;;;;;;5.00;99.90;;;;;;10411154;28;20017;-70
2021/01/05 11:48:05;;;;;;;;;;;5.10;99.90;;;;;;10409139;28;20007;-70
2021/01/05 11:53:06;;;;;;;;;;;5.00;99.90;;;;;;10411097;28;20008;-70
2021/01/05 11:58:07;;;;;;;;;;;4.90;99.90;;;;;;10424445;28;19968;-70
2021/01/05 12:03:08;;;;;;;;;;;4.90;99.90;;;;;;10410618;28;19972;-70
2021/01/05 12:08:10;;;;;;;;;;;4.80;99.90;;;;;;10410968;28;19929;-71
2021/01/05 12:13:11;;;;;;;;;;;4.80;99.90;;;;;;10409105;28;19925;-70
2021/01/05 12:18:12;;;;;;;;;;;4.80;99.90;;;;;;10409620;28;19995;-70
2021/01/05 12:23:14;;;;;;;;;;;4.80;99.90;;;;;;10409458;28;19968;-70
2021/01/05 12:28:15;;;;;;;;;;;4.70;99.90;;;;;;10407915;28;19971;-70
2021/01/05 12:33:16;;;;;;;;;;;4.70;99.90;;;;;;10408911;28;20377;-70
2021/01/05 12:38:18;;;;;;;;;;;4.80;99.90;;;;;;10408933;28;19986;-71
2021/01/05 12:43:19;;;;;;;;;;;4.90;99.90;;;;;;10408626;28;20452;-70
2021/01/05 12:48:20;;;;;;;;;;;5.00;99.90;;;;;;10408172;28;20408;-70
2021/01/05 12:53:21;;;;;;;;;;;5.00;99.90;;;;;;10408012;28;19964;-70
2021/01/05 12:58:23;;;;;;;;;;;4.70;99.90;;;;;;10408799;28;19933;-70
2021/01/05 13:03:24;;;;;;;;;;;4.70;99.90;;;;;;10407850;28;19980;-70
2021/01/05 13:08:25;;;;;;;;;;;4.80;99.90;;;;;;10407160;28;20345;-70
2021/01/05 13:13:27;;;;;;;;;;;4.90;99.90;;;;;;10407499;28;20465;-70
2021/01/05 13:18:28;;;;;;;;;;;5.00;99.90;;;;;;10409060;28;20419;-70
2021/01/05 13:23:29;;;;;;;;;;;4.80;99.90;;;;;;10408667;28;20018;-70
2021/01/05 13:28:30;;;;;;;;;;;4.80;99.90;;;;;;10404405;28;20020;-70
2021/01/05 13:33:32;;;;;;;;;;;4.70;99.90;;;;;;10405250;28;20020;-70
2021/01/05 13:38:33;;;;;;;;;;;4.60;99.90;;;;;;10404320;28;20388;-70
2021/01/05 13:43:35;;;;;;;;;;;4.70;99.90;;;;;;10405159;28;19968;-70
2021/01/05 13:48:36;;;;;;;;;;;5.00;99.90;;;;;;10404368;28;20122;-70
2021/01/05 13:53:37;;;;;;;;;;;5.00;99.90;;;;;;10402650;28;20325;-70
2021/01/05 13:58:38;;;;;;;;;;;5.10;99.90;;;;;;10404280;28;20038;-70
2021/01/05 14:03:40;;;;;;;;;;;5.00;99.90;;;;;;10404648;28;20020;-70
2021/01/05 14:08:42;;;;;;;;;;;4.90;99.90;;;;;;10403935;28;20385;-70
2021/01/05 14:13:43;;;;;;;;;;;4.90;99.90;;;;;;10405089;28;19929;-70
2021/01/05 14:18:44;;;;;;;;;;;4.80;99.90;;;;;;10403765;28;20346;-70
2021/01/05 14:23:46;;;;;;;;;;;4.80;99.90;;;;;;10403072;28;20456;-70
2021/01/05 14:28:47;;;;;;;;;;;4.90;99.90;;;;;;10378016;28;19971;-70
2021/01/05 14:33:49;;;;;;;;;;;4.90;99.90;;;;;;10373037;28;20011;-70
2021/01/05 14:38:50;;;;;;;;;;;4.90;99.90;;;;;;10403950;28;19956;-70
2021/01/05 14:43:52;;;;;;;;;;;4.80;99.90;;;;;;10403850;28;20365;-70
2021/01/05 14:48:54;;;;;;;;;;;4.80;99.90;;;;;;10403999;28;19929;-70
2021/01/05 14:53:55;;;;;;;;;;;4.80;99.90;;;;;;10410280;28;19961;-70
2021/01/05 14:58:58;;;;;;;;;;;4.90;99.90;;;;;;10412973;28;19929;-70
2021/01/05 15:03:59;;;;;;;;;;;5.00;99.90;;;;;;10412530;28;19935;-69
2021/01/05 15:09:03;;;;;;;;;;;5.00;99.90;;;;;;10427880;28;20029;-70
2021/01/05 15:14:06;;;;;;;;;;;5.00;99.90;;;;;;10412230;28;20439;-69
2021/01/05 15:19:07;;;;;;;;;;;5.10;99.90;;;;;;10410700;28;19964;-70
2021/01/05 15:24:09;;;;;;;;;;;5.20;99.90;;;;;;10411953;28;20463;-70
2021/01/05 15:29:11;;;;;;;;;;;5.20;99.90;;;;;;10411456;28;20440;-70
2021/01/05 15:34:13;;;;;;;;;;;5.10;99.90;;;;;;10426182;28;19964;-69
2021/01/05 15:39:16;;;;;;;;;;;5.10;99.90;;;;;;10411507;28;19983;-70
2021/01/05 15:44:18;;;;;;;;;;;5.10;99.90;;;;;;10411834;28;19984;-70
2021/01/05 15:49:19;;;;;;;;;;;5.20;99.90;;;;;;10409959;28;20469;-69
2021/01/05 15:54:21;;;;;;;;;;;5.10;99.90;;;;;;10410629;28;20020;-70
2021/01/05 15:59:23;;;;;;;;;;;4.90;99.90;;;;;;10410641;28;20016;-70
2021/01/05 16:04:24;;;;;;;;;;;4.80;99.90;;;;;;10407461;28;19968;-69
2021/01/05 16:09:25;;;;;;;;;;;4.90;99.90;;;;;;10410406;28;19964;-70
2021/01/05 16:14:28;;;;;;;;;;;4.80;99.90;;;;;;10409900;28;20015;-70
2021/01/05 16:19:29;;;;;;;;;;;4.70;99.90;;;;;;10409578;28;19956;-70
2021/01/05 16:24:30;;;;;;;;;;;4.60;99.90;;;;;;10409428;28;20393;-70
2021/01/05 16:29:32;;;;;;;;;;;4.60;99.90;;;;;;10409084;28;20423;-70
2021/01/05 16:34:35;;;;;;;;;;;4.80;99.90;;;;;;10423633;28;19925;-69
2021/01/05 16:39:37;;;;;;;;;;;4.90;99.90;;;;;;10409819;28;20024;-70
2021/01/05 16:44:38;;;;;;;;;;;4.90;99.90;;;;;;10408312;28;20487;-70
2021/01/05 16:49:39;;;;;;;;;;;4.90;99.90;;;;;;10408208;28;20433;-70
2021/01/05 16:54:41;;;;;;;;;;;4.90;99.90;;;;;;10408365;28;19967;-70
2021/01/05 16:59:42;;;;;;;;;;;4.90;99.90;;;;;;10406757;28;20035;-65
2021/01/05 17:04:43;;;;;;;;;;;4.90;99.90;;;;;;10408526;28;19972;-65
2021/01/05 17:09:44;;;;;;;;;;;4.90;99.90;;;;;;10407471;28;20020;-65
2021/01/05 17:14:46;;;;;;;;;;;4.90;99.90;;;;;;10406586;28;20461;-66
2021/01/05 17:19:48;;;;;;;;;;;5.00;99.90;;;;;;10406923;28;19948;-65
2021/01/05 17:24:49;;;;;;;;;;;4.90;99.90;;;;;;10406943;28;19929;-65
2021/01/05 17:29:51;;;;;;;;;;;4.80;99.90;;;;;;10406782;28;19932;-64
2021/01/05 17:34:52;;;;;;;;;;;4.80;99.90;;;;;;10407106;28;20016;-66
2021/01/05 17:39:54;;;;;;;;;;;4.80;99.90;;;;;;10405785;28;19979;-66
2021/01/05 17:44:55;;;;;;;;;;;4.90;99.90;;;;;;10405691;28;20473;-65
2021/01/05 17:49:57;;;;;;;;;;;4.80;99.90;;;;;;10406314;28;20000;-66
2021/01/05 17:54:59;;;;;;;;;;;5.00;99.90;;;;;;10406372;28;19929;-66
2021/01/05 18:00:01;;;;;;;;;;;5.10;99.90;;;;;;10405763;28;19925;-65
2021/01/05 18:05:04;;;;;;;;;;;5.10;99.90;;;;;;10405068;28;20480;-65
2021/01/05 18:10:06;;;;;;;;;;;5.10;99.90;;;;;;10405452;28;20011;-65
2021/01/05 18:15:10;;;;;;;;;;;4.90;99.90;;;;;;10405563;28;19929;-65
2021/01/05 18:20:13;;;;;;;;;;;4.70;99.90;;;;;;10421155;28;19931;-65
2021/01/05 18:25:15;;;;;;;;;;;4.80;99.90;;;;;;10404558;28;20397;-65
2021/01/05 18:30:18;;;;;;;;;;;4.90;99.90;;;;;;10404652;28;20441;-65
2021/01/05 18:35:20;;;;;;;;;;;4.90;99.90;;;;;;10404966;28;19981;-66
2021/01/05 18:40:26;;;;;;;;;;;4.80;99.90;;;;;;10404718;28;20020;-65
2021/01/05 18:45:29;;;;;;;;;;;4.80;99.90;;;;;;10404642;28;20365;-65
2021/01/05 18:50:32;;;;;;;;;;;4.80;99.90;;;;;;10404752;28;20329;-65
2021/01/05 18:55:33;;;;;;;;;;;4.80;99.90;;;;;;10402878;28;20016;-65
2021/01/05 19:00:35;;;;;;;;;;;4.70;99.90;;;;;;10404895;28;19972;-65
2021/01/05 19:05:37;;;;;;;;;;;4.80;99.90;;;;;;10404393;28;19979;-65
2021/01/05 19:10:43;;;;;;;;;;;4.90;99.90;;;;;;10419427;28;20019;-65
2021/01/05 19:15:45;;;;;;;;;;;4.90;99.90;;;;;;10403121;28;19971;-65
2021/01/05 19:20:46;;;;;;;;;;;4.90;99.90;;;;;;10404492;28;19925;-65
2021/01/05 19:25:47;;;;;;;;;;;4.90;99.90;;;;;;10402957;28;19960;-66
2021/01/05 19:30:49;;;;;;;;;;;5.00;99.90;;;;;;10404295;28;20016;-66
2021/01/05 19:35:50;;;;;;;;;;;4.80;99.90;;;;;;10403794;28;20025;-65
2021/01/05 19:40:51;;;;;;;;;;;4.90;99.90;;;;;;10410725;28;20377;-66
2021/01/05 19:45:54;;;;;;;;;;;4.80;99.90;;;;;;10410908;28;20405;-65
2021/01/05 19:50:56;;;;;;;;;;;4.80;99.90;;;;;;10425731;28;20008;-66
2021/01/05 19:56:02;;;;;;;;;;;4.60;99.90;;;;;;10409739;28;19951;-65
2021/01/05 20:01:04;;;;;;;;;;;4.70;99.90;;;;;;10410492;28;19964;-65
2021/01/05 20:06:10;;;;;;;;;;;4.80;99.90;;;;;;10411021;28;19976;-65
2021/01/05 20:11:18;;;;;;;;;;;4.70;99.90;;;;;;10407996;28;19925;-65
2021/01/05 20:16:20;;;;;;;;;;;4.60;99.90;;;;;;10409997;28;19979;-65
2021/01/05 20:21:22;;;;;;;;;;;4.50;99.90;;;;;;10409902;28;19953;-65
2021/01/05 20:26:25;;;;;;;;;;;4.50;99.90;;;;;;10408888;28;20269;-65
2021/01/05 20:31:26;;;;;;;;;;;4.50;99.90;;;;;;10409279;28;19933;-66
2021/01/05 20:36:29;;;;;;;;;;;4.40;99.90;;;;;;10409255;28;19964;-65
2021/01/05 20:41:41;;;;;;;;;;;4.40;99.90;;;;;;10407738;28;19971;-65
2021/01/05 20:46:43;;;;;;;;;;;4.40;99.90;;;;;;10404752;28;19929;-65
2021/01/05 20:51:44;;;;;;;;;;;4.50;99.90;;;;;;10406200;28;19960;-65
2021/01/05 20:56:46;;;;;;;;;;;4.50;99.90;;;;;;10406140;28;20361;-65
2021/01/05 21:01:50;;;;;;;;;;;4.50;99.90;;;;;;10406999;28;20015;-66
2021/01/05 21:06:52;;;;;;;;;;;4.40;99.90;;;;;;10406212;28;20020;-65
2021/01/05 21:11:53;;;;;;;;;;;4.40;99.90;;;;;;10405289;28;19925;-65
2021/01/05 21:16:59;;;;;;;;;;;4.50;99.90;;;;;;10436984;28;19929;-65
2021/01/05 21:22:04;;;;;;;;;;;4.50;99.90;;;;;;10406440;28;20015;-66
2021/01/05 21:27:07;;;;;;;;;;;4.60;99.90;;;;;;10405239;28;20389;-65
2021/01/05 21:32:08;;;;;;;;;;;4.60;99.90;;;;;;10405412;28;20031;-65
2021/01/05 21:37:09;;;;;;;;;;;4.60;99.90;;;;;;10405752;28;19972;-65
2021/01/05 21:42:11;;;;;;;;;;;4.60;99.90;;;;;;10404478;28;20016;-65
2021/01/05 21:47:15;;;;;;;;;;;4.50;99.90;;;;;;10403156;28;20392;-65
2021/01/05 21:52:16;;;;;;;;;;;4.50;99.90;;;;;;10405534;28;20437;-65
2021/01/05 21:57:17;;;;;;;;;;;4.50;99.90;;;;;;10404164;28;20019;-65
2021/01/05 22:02:18;;;;;;;;;;;4.40;99.90;;;;;;10404697;28;19963;-65
2021/01/05 22:07:20;;;;;;;;;;;4.40;99.90;;;;;;10403888;28;19933;-65
2021/01/05 22:12:21;;;;;;;;;;;4.50;99.90;;;;;;10400506;28;19959;-65
2021/01/05 22:17:22;;;;;;;;;;;4.60;99.90;;;;;;10399874;28;20399;-65
2021/01/05 22:22:25;;;;;;;;;;;4.70;99.90;;;;;;10401216;28;20047;-65
2021/01/05 22:27:26;;;;;;;;;;;4.80;99.90;;;;;;10402035;28;20460;-65
2021/01/05 22:32:27;;;;;;;;;;;4.80;99.90;;;;;;10430133;28;20022;-65
2021/01/05 22:37:28;;;;;;;;;;;4.90;99.90;;;;;;10400779;28;19987;-66
2021/01/05 22:42:30;;;;;;;;;;;4.90;99.90;;;;;;10401322;28;19929;-65
2021/01/05 22:47:31;;;;;;;;;;;4.90;99.90;;;;;;10399922;28;19968;-65
2021/01/05 22:52:32;;;;;;;;;;;4.90;99.90;;;;;;10407066;28;19995;-65
2021/01/05 22:57:34;;;;;;;;;;;5.00;99.90;;;;;;10400665;28;20340;-65
2021/01/05 23:02:35;;;;;;;;;;;5.00;99.90;;;;;;10400796;28;20016;-65
2021/01/05 23:07:36;;;;;;;;;;;4.90;99.90;;;;;;10400558;28;19968;-65
2021/01/05 23:12:38;;;;;;;;;;;4.80;99.90;;;;;;10403351;28;19952;-65
2021/01/05 23:17:39;;;;;;;;;;;4.60;99.90;;;;;;10406591;28;20022;-65
2021/01/05 23:22:41;;;;;;;;;;;4.70;99.90;;;;;;10406541;28;20018;-65
2021/01/05 23:27:42;;;;;;;;;;;4.60;99.90;;;;;;10405939;28;19975;-65
2021/01/05 23:32:48;;;;;;;;;;;4.60;99.90;;;;;;10404380;28;19929;-66
2021/01/05 23:37:49;;;;;;;;;;;4.50;99.90;;;;;;10407396;28;20020;-65
2021/01/05 23:42:54;;;;;;;;;;;4.40;99.90;;;;;;10407220;28;19929;-65
2021/01/05 23:47:56;;;;;;;;;;;4.20;99.90;;;;;;10406799;28;19935;-65
2021/01/05 23:52:57;;;;;;;;;;;4.10;99.90;;;;;;10407409;28;20004;-65
2021/01/05 23:57:59;;;;;;;;;;;4.10;99.90;;;;;;10422139;28;19925;-66
